Terminal Aerodrome Forecast
Issued by NWS Melbourne, FL

Home | Current Version | Previous Version | Text Only | Print | Product List | Glossary On
Versions: 1 2 3 4 5 6 7 8 9 10 11 12
000
FTUS42 KMLB 272300 RRA
TAFMLB
TAF
KMLB 272346Z 2800/2824 09005KT P6SM FEW025 SCT120
     FM280300 09004KT P6SM SCT025 OVC040
      TEMPO 2803/2806 5SM BR BKN012 OVC025
     FM280600 VRB03KT 5SM BR OVC010
     FM281300 16004KT 6SM HZ BKN008 BKN020=

USA.gov is the U.S. government's official web portal to all federal, state and local government web resources and services.